• Join FlightAware (Why Join?)
  • Login
  • US Flag 
03:19PM EST


 

Airport Tracker/Info


-or-


 

Live Flight TrackerFlight Track Log ✈ VH-ZPO ✈ 01-May-2013 ✈ YBRK / ROK - YBBN / BNE

Flight Track Log - Related Links

Times and Time Zones

All times are in EDT time to prevent confusion due to time zone crossing. See the VH-ZPO flight status page for this flight to view local times or setup timezone preferences in your user account.

Time Position Orientation Groundspeed Altitude Reporting Facility
EDT Latitude Longitude Course Direction KTS MPH feet Rate Location/Type
05:27AM -23.4128 150.4900 156° South 151 174 1,900  Level Aus ATC (RADAR)
05:27AM -23.4228 150.4948 156° South 155 178 2,300 2,520 Climbing Aus ATC (RADAR)
05:28AM -23.4485 150.5057 159° South 169 194 4,000 2,580 Climbing Aus ATC (RADAR)
05:29AM -23.5023 150.5093 177° South 222 255 6,200 2,160 Climbing Aus ATC (RADAR)
05:29AM -23.5440 150.5121 176° South 257 296 7,300 2,520 Climbing Aus ATC (RADAR)
05:30AM -23.6166 150.5165 177° South 289 333 10,000 2,760 Climbing Aus ATC (RADAR)
05:31AM -23.6654 150.5194 177° South 302 348 11,500 2,640 Climbing Aus ATC (RADAR)
05:32AM -23.7618 150.5255 177° South 322 371 14,400 2,700 Climbing Aus ATC (RADAR)
05:32AM -23.7847 150.5269 177° South 327 376 15,100 2,280 Climbing Aus ATC (RADAR)
05:33AM -23.8394 150.5303 177° South 337 388 16,300 2,280 Climbing Aus ATC (RADAR)
05:34AM -23.9299 150.5358 177° South 356 410 18,600 2,520 Climbing Aus ATC (RADAR)
05:34AM -23.9884 150.5394 177° South 360 414 20,100 2,460 Climbing Aus ATC (RADAR)
05:35AM -24.0814 150.5448 177° South 368 423 22,300 2,460 Climbing Aus ATC (RADAR)
05:36AM -24.1410 150.5487 177° South 368 423 23,800 1,980 Climbing Aus ATC (RADAR)
05:37AM -24.3247 150.5598 177° South 389 448 27,000 1,800 Climbing Aus ATC (RADAR)
05:38AM -24.3608 150.5620 177° South 390 449 27,600 1,620 Climbing Aus ATC (RADAR)
05:39AM -24.4529 150.5685 176° South 402 463 28,900 1,500 Climbing Aus ATC (RADAR)
05:39AM -24.4893 150.5735 173° South 397 457 29,400 1,560 Climbing Aus ATC (RADAR)
05:39AM -24.5429 150.6045 152° Southeast 422 486 30,200 1,080 Climbing Aus ATC (RADAR)
05:40AM -24.6459 150.6814 146° Southeast 443 510 31,100 540 Climbing Aus ATC (RADAR)
05:41AM -24.7113 150.7305 146° Southeast 421 484 31,100  Level Aus ATC (RADAR)
05:42AM -24.8379 150.8228 147° Southeast 410 472 31,100  Level Aus ATC (RADAR)
05:43AM -24.8620 150.8403 147° Southeast 411 473 31,100  Level Aus ATC (RADAR)
05:43AM -24.9176 150.8809 146° Southeast 409 471 31,100  Level Aus ATC (RADAR)
05:44AM -25.0133 150.9509 146° Southeast 412 474 31,100  Level Aus ATC (RADAR)
05:45AM -25.0690 150.9918 146° Southeast 411 473 31,100  Level Aus ATC (RADAR)
05:46AM -25.1561 151.0568 146° Southeast 409 471 31,100  Level Aus ATC (RADAR)
05:47AM -25.2672 151.1392 146° Southeast 409 471 31,100  Level Aus ATC (RADAR)
05:48AM -25.3313 151.1859 147° Southeast 411 473 31,200 60 Climbing Aus ATC (RADAR)
05:48AM -25.3550 151.2040 145° Southeast 410 472 31,200  Level Aus ATC (RADAR)
05:48AM -25.4107 151.2450 146° Southeast 411 473 31,200  Level Aus ATC (RADAR)
05:49AM -25.4979 151.3086 147° Southeast 404 465 31,200  Level Aus ATC (RADAR)
05:50AM -25.5534 151.3496 146° Southeast 409 471 31,200  Level Aus ATC (RADAR)
05:51AM -25.6317 151.4096 145° Southeast 408 470 31,200  Level Aus ATC (RADAR)
05:51AM -25.6634 151.4329 146° Southeast 407 468 31,200  Level Aus ATC (RADAR)
05:52AM -25.7792 151.5266 144° Southeast 411 473 31,200  Level Aus ATC (RADAR)
05:53AM -25.7998 151.5492 135° Southeast 411 473 31,200  Level Aus ATC (RADAR)
05:53AM -25.8505 151.5995 138° Southeast 414 476 31,200  Level Aus ATC (RADAR)
05:54AM -25.9305 151.6781 139° Southeast 415 478 31,200  Level Aus ATC (RADAR)
05:55AM -25.9807 151.7281 138° Southeast 412 474 31,200  Level Aus ATC (RADAR)
05:56AM -26.0598 151.8061 138° Southeast 416 479 31,200  Level Aus ATC (RADAR)
05:56AM -26.1097 151.8565 138° Southeast 412 474 31,200  Level Aus ATC (RADAR)
05:57AM -26.2245 151.9711 138° Southeast 412 474 31,200  Level Aus ATC (RADAR)
05:58AM -26.2459 151.9927 138° Southeast 411 473 31,200  Level Aus ATC (RADAR)
05:58AM -26.2956 152.0430 138° Southeast 410 472 31,200  Level Aus ATC (RADAR)
05:59AM -26.3814 152.1292 138° Southeast 410 472 31,200  Level Aus ATC (RADAR)
06:00AM -26.4312 152.1796 138° Southeast 412 474 31,200  Level Aus ATC (RADAR)
06:01AM -26.5160 152.2660 138° Southeast 407 468 31,200  Level Aus ATC (RADAR)
06:01AM -26.5657 152.3162 138° Southeast 408 470 31,200 -480 Level Aus ATC (RADAR)
06:03AM -26.6915 152.4444 138° Southeast 399 459 30,200 -840 Descending Aus ATC (RADAR)
06:03AM -26.7188 152.4718 138° Southeast 394 453 29,700 -1,560 Descending Aus ATC (RADAR)
06:04AM -26.7660 152.5201 138° Southeast 388 447 28,800 -1,020 Descending Aus ATC (RADAR)
06:05AM -26.8373 152.5931 138° Southeast 374 430 28,200 -780 Descending Aus ATC (RADAR)
06:05AM -26.8824 152.6389 138° Southeast 370 426 27,700 -960 Descending Aus ATC (RADAR)
06:06AM -26.9589 152.6505 172° South 313 360 26,800 -960 Descending Aus ATC (RADAR)
06:08AM -26.9631 152.5316 268° West 289 333 25,500 -960 Descending Aus ATC (RADAR)
06:08AM -26.9462 152.5179 324° Northwest 292 336 25,200 -960 Descending Aus ATC (RADAR)
06:09AM -26.9107 152.4820 318° Northwest 293 337 24,700 -1,020 Descending Aus ATC (RADAR)
06:10AM -26.8561 152.4267 318° Northwest 286 329 23,700 -1,020 Descending Aus ATC (RADAR)
06:10AM -26.8181 152.3863 317° Northwest 282 325 23,100 -960 Descending Aus ATC (RADAR)
06:11AM -26.7701 152.3372 318° Northwest 280 322 22,300 -1,080 Descending Aus ATC (RADAR)
06:12AM -26.7219 152.3468 10° North 300 345 21,600 -1,680 Descending Aus ATC (RADAR)
06:13AM -26.6578 152.4768 61° Northeast 330 380 19,000 -1,980 Descending Aus ATC (RADAR)
06:13AM -26.6474 152.5010 64° Northeast 335 386 18,300 -2,040 Descending Aus ATC (RADAR)
06:14AM -26.6540 152.5670 96° East 360 414 17,300 -1,680 Descending Aus ATC (RADAR)
06:15AM -26.7337 152.6095 155° Southeast 318 366 15,700 -1,560 Descending Aus ATC (RADAR)
06:15AM -26.7835 152.6170 172° South 309 356 14,900 -1,380 Descending Aus ATC (RADAR)
06:16AM -26.8687 152.6315 171° South 309 356 13,600 -1,680 Descending Aus ATC (RADAR)
06:18AM -26.9653 152.7241 139° Southeast 315 362 11,000 -1,920 Descending Aus ATC (RADAR)
06:18AM -27.0024 152.7627 137° Southeast 305 351 9,800 -1,740 Descending Aus ATC (RADAR)
06:19AM -27.0276 152.7890 137° Southeast 294 338 9,300 -1,440 Descending Aus ATC (RADAR)
06:19AM -27.0621 152.8242 138° Southeast 281 323 8,400 -1,560 Descending Aus ATC (RADAR)
06:20AM -27.1097 152.8733 137° Southeast 271 312 7,100 -1,140 Descending Aus ATC (RADAR)
06:21AM -27.1432 152.9060 139° Southeast 270 311 6,800 -540 Descending Aus ATC (RADAR)
06:22AM -27.2249 152.9037 181° South 275 316 6,200 -540 Descending Aus ATC (RADAR)
06:23AM -27.3123 152.9116 175° South 269 310 5,600 -600 Descending Aus ATC (RADAR)
06:23AM -27.3309 152.9140 173° South 268 308 5,400 -600 Descending Aus ATC (RADAR)
06:24AM -27.3800 152.9210 173° South 267 307 5,100 -540 Descending Aus ATC (RADAR)
06:25AM -27.4512 152.9312 173° South 251 289 4,500 -600 Descending Aus ATC (RADAR)
06:26AM -27.4905 152.9371 172° South 244 281 4,200 -540 Descending Aus ATC (RADAR)
06:26AM -27.5359 152.9619 154° Southeast 222 255 3,800 -420 Descending Aus ATC (RADAR)
06:27AM -27.5572 152.9951 126° Southeast 189 217 3,600 -600 Descending Aus ATC (RADAR)
06:29AM -27.5160 153.0532 51° Northeast 162 186 2,500 -720 Descending Aus ATC (RADAR)
06:29AM -27.5031 153.0608 28° Northeast 159 183 2,200 -900 Descending Aus ATC (RADAR)
06:30AM -27.4726 153.0786 27° Northeast 148 170 1,500 -780 Descending Aus ATC (RADAR)
06:30AM -27.4642 153.0833 26° Northeast 141 162 1,400 -600 Descending Aus ATC (RADAR)
06:31AM -27.4460 153.0935 27° Northeast 126 145 1,000 -720 Descending Aus ATC (RADAR)
06:32AM -27.4171 153.1107 28° Northeast 128 147 400 -660 Descending Aus ATC (RADAR)